sensor_id;sensor_type;location;lat;lon;timestamp;temperature;humidity
13436;DHT22;6790;49.520;8.504;2023-09-19T00:00:43;16.70;99.90
13436;DHT22;6790;49.520;8.504;2023-09-19T00:03:12;16.70;99.90
13436;DHT22;6790;49.520;8.504;2023-09-19T00:05:38;16.70;99.90
13436;DHT22;6790;49.520;8.504;2023-09-19T00:08:04;16.70;99.90
13436;DHT22;6790;49.520;8.504;2023-09-19T00:10:32;16.60;99.90
13436;DHT22;6790;49.520;8.504;2023-09-19T00:13:01;16.60;99.90
13436;DHT22;6790;49.520;8.504;2023-09-19T00:15:40;16.60;99.90
13436;DHT22;6790;49.520;8.504;2023-09-19T00:18:13;16.60;99.90
13436;DHT22;6790;49.520;8.504;2023-09-19T00:20:41;16.60;99.90
13436;DHT22;6790;49.520;8.504;2023-09-19T00:23:07;16.60;99.90
13436;DHT22;6790;49.520;8.504;2023-09-19T00:25:36;16.60;99.90
13436;DHT22;6790;49.520;8.504;2023-09-19T00:28:05;16.60;99.90
13436;DHT22;6790;49.520;8.504;2023-09-19T00:30:35;16.60;99.90
13436;DHT22;6790;49.520;8.504;2023-09-19T00:33:03;16.60;99.90
13436;DHT22;6790;49.520;8.504;2023-09-19T00:35:31;16.60;99.90
13436;DHT22;6790;49.520;8.504;2023-09-19T00:37:58;16.50;99.90
13436;DHT22;6790;49.520;8.504;2023-09-19T00:40:24;16.50;99.90
13436;DHT22;6790;49.520;8.504;2023-09-19T00:42:51;16.50;99.90
13436;DHT22;6790;49.520;8.504;2023-09-19T00:45:17;16.50;99.90
13436;DHT22;6790;49.520;8.504;2023-09-19T00:47:51;16.50;99.90
13436;DHT22;6790;49.520;8.504;2023-09-19T00:50:18;16.60;99.90
13436;DHT22;6790;49.520;8.504;2023-09-19T00:52:46;16.60;99.90
13436;DHT22;6790;49.520;8.504;2023-09-19T00:55:15;16.60;99.90
13436;DHT22;6790;49.520;8.504;2023-09-19T00:57:41;16.50;99.90
13436;DHT22;6790;49.520;8.504;2023-09-19T01:00:08;16.60;99.90
13436;DHT22;6790;49.520;8.504;2023-09-19T01:02:41;16.50;99.90
13436;DHT22;6790;49.520;8.504;2023-09-19T01:05:08;16.60;99.90
13436;DHT22;6790;49.520;8.504;2023-09-19T01:07:35;16.60;99.90
13436;DHT22;6790;49.520;8.504;2023-09-19T01:10:06;16.60;99.90
13436;DHT22;6790;49.520;8.504;2023-09-19T01:15:38;16.50;99.90
13436;DHT22;6790;49.520;8.504;2023-09-19T01:21:26;16.40;99.90
13436;DHT22;6790;49.520;8.504;2023-09-19T01:30:14;16.60;99.90
13436;DHT22;6790;49.520;8.504;2023-09-19T01:32:43;16.60;99.90
13436;DHT22;6790;49.520;8.504;2023-09-19T01:35:11;16.70;99.90
13436;DHT22;6790;49.520;8.504;2023-09-19T01:37:38;16.70;99.90
13436;DHT22;6790;49.520;8.504;2023-09-19T01:40:07;16.70;99.90
13436;DHT22;6790;49.520;8.504;2023-09-19T01:43:36;16.70;99.90
13436;DHT22;6790;49.520;8.504;2023-09-19T01:54:41;16.70;99.90
13436;DHT22;6790;49.520;8.504;2023-09-19T02:00:06;16.70;99.90
13436;DHT22;6790;49.520;8.504;2023-09-19T02:02:38;16.70;99.90
13436;DHT22;6790;49.520;8.504;2023-09-19T02:05:05;16.70;99.90
13436;DHT22;6790;49.520;8.504;2023-09-19T02:07:31;16.70;99.90
13436;DHT22;6790;49.520;8.504;2023-09-19T02:09:58;16.70;99.90
13436;DHT22;6790;49.520;8.504;2023-09-19T02:12:30;16.80;99.90
13436;DHT22;6790;49.520;8.504;2023-09-19T02:14:56;16.80;99.90
13436;DHT22;6790;49.520;8.504;2023-09-19T02:17:23;16.70;99.90
13436;DHT22;6790;49.520;8.504;2023-09-19T02:19:52;16.80;99.90
13436;DHT22;6790;49.520;8.504;2023-09-19T02:22:23;16.80;99.90
13436;DHT22;6790;49.520;8.504;2023-09-19T02:24:50;16.80;99.90
13436;DHT22;6790;49.520;8.504;2023-09-19T02:27:16;16.80;99.90
13436;DHT22;6790;49.520;8.504;2023-09-19T02:29:43;16.80;99.90
13436;DHT22;6790;49.520;8.504;2023-09-19T02:32:09;16.80;99.90
13436;DHT22;6790;49.520;8.504;2023-09-19T02:34:35;16.70;99.90
13436;DHT22;6790;49.520;8.504;2023-09-19T02:37:05;16.80;99.90
13436;DHT22;6790;49.520;8.504;2023-09-19T02:39:32;16.70;99.90
13436;DHT22;6790;49.520;8.504;2023-09-19T02:41:57;16.70;99.90
13436;DHT22;6790;49.520;8.504;2023-09-19T02:44:23;16.70;99.90
13436;DHT22;6790;49.520;8.504;2023-09-19T02:46:49;16.70;99.90
13436;DHT22;6790;49.520;8.504;2023-09-19T02:49:16;16.60;99.90
13436;DHT22;6790;49.520;8.504;2023-09-19T02:51:43;16.60;99.90
13436;DHT22;6790;49.520;8.504;2023-09-19T02:54:09;16.60;99.90
13436;DHT22;6790;49.520;8.504;2023-09-19T02:56:36;16.50;99.90
13436;DHT22;6790;49.520;8.504;2023-09-19T02:59:02;16.60;99.90
13436;DHT22;6790;49.520;8.504;2023-09-19T03:01:28;16.60;99.90
13436;DHT22;6790;49.520;8.504;2023-09-19T03:03:54;16.50;99.90
13436;DHT22;6790;49.520;8.504;2023-09-19T03:06:21;16.50;99.90
13436;DHT22;6790;49.520;8.504;2023-09-19T03:08:47;16.60;99.90
13436;DHT22;6790;49.520;8.504;2023-09-19T03:11:14;16.50;99.90
13436;DHT22;6790;49.520;8.504;2023-09-19T03:13:41;16.50;99.90
13436;DHT22;6790;49.520;8.504;2023-09-19T03:16:11;16.40;99.90
13436;DHT22;6790;49.520;8.504;2023-09-19T03:18:40;16.40;99.90
13436;DHT22;6790;49.520;8.504;2023-09-19T03:21:05;16.40;99.90
13436;DHT22;6790;49.520;8.504;2023-09-19T03:23:31;16.40;99.90
13436;DHT22;6790;49.520;8.504;2023-09-19T03:25:57;16.40;99.90
13436;DHT22;6790;49.520;8.504;2023-09-19T03:28:24;16.40;99.90
13436;DHT22;6790;49.520;8.504;2023-09-19T03:31:03;16.30;99.90
13436;DHT22;6790;49.520;8.504;2023-09-19T03:33:30;16.20;99.90
13436;DHT22;6790;49.520;8.504;2023-09-19T03:36:00;16.20;99.90
13436;DHT22;6790;49.520;8.504;2023-09-19T03:38:30;16.20;99.90
13436;DHT22;6790;49.520;8.504;2023-09-19T03:40:56;16.20;99.90
13436;DHT22;6790;49.520;8.504;2023-09-19T03:43:22;16.20;99.90
13436;DHT22;6790;49.520;8.504;2023-09-19T03:45:48;16.20;99.90
13436;DHT22;6790;49.520;8.504;2023-09-19T03:48:15;16.10;99.90
13436;DHT22;6790;49.520;8.504;2023-09-19T03:50:41;16.10;99.90
13436;DHT22;6790;49.520;8.504;2023-09-19T03:53:06;16.00;99.90
13436;DHT22;6790;49.520;8.504;2023-09-19T03:55:32;16.00;99.90
13436;DHT22;6790;49.520;8.504;2023-09-19T03:58:01;16.00;99.90
13436;DHT22;6790;49.520;8.504;2023-09-19T04:00:27;16.00;99.90
13436;DHT22;6790;49.520;8.504;2023-09-19T04:02:54;16.00;99.90
13436;DHT22;6790;49.520;8.504;2023-09-19T04:05:22;16.00;99.90
13436;DHT22;6790;49.520;8.504;2023-09-19T04:07:48;15.90;99.90
13436;DHT22;6790;49.520;8.504;2023-09-19T04:10:15;15.90;99.90
13436;DHT22;6790;49.520;8.504;2023-09-19T04:12:50;15.80;99.90
13436;DHT22;6790;49.520;8.504;2023-09-19T04:15:18;15.80;99.90
13436;DHT22;6790;49.520;8.504;2023-09-19T04:17:44;15.70;99.90
13436;DHT22;6790;49.520;8.504;2023-09-19T04:20:10;15.70;99.90
13436;DHT22;6790;49.520;8.504;2023-09-19T04:22:38;15.70;99.90
13436;DHT22;6790;49.520;8.504;2023-09-19T04:25:05;15.70;99.90
13436;DHT22;6790;49.520;8.504;2023-09-19T04:27:32;15.60;99.90
13436;DHT22;6790;49.520;8.504;2023-09-19T04:29:58;15.60;99.90
13436;DHT22;6790;49.520;8.504;2023-09-19T04:32:28;15.60;99.90
13436;DHT22;6790;49.520;8.504;2023-09-19T04:34:53;15.60;99.90
13436;DHT22;6790;49.520;8.504;2023-09-19T04:37:19;15.60;99.90
13436;DHT22;6790;49.520;8.504;2023-09-19T04:39:47;15.60;99.90
13436;DHT22;6790;49.520;8.504;2023-09-19T04:42:13;15.60;99.90
13436;DHT22;6790;49.520;8.504;2023-09-19T04:44:40;15.50;99.90
13436;DHT22;6790;49.520;8.504;2023-09-19T04:47:05;15.50;99.90
13436;DHT22;6790;49.520;8.504;2023-09-19T04:49:31;15.50;99.90
13436;DHT22;6790;49.520;8.504;2023-09-19T04:51:57;15.40;99.90
13436;DHT22;6790;49.520;8.504;2023-09-19T04:54:22;15.40;99.90
13436;DHT22;6790;49.520;8.504;2023-09-19T04:56:48;15.40;99.90
13436;DHT22;6790;49.520;8.504;2023-09-19T04:59:14;15.30;99.90
13436;DHT22;6790;49.520;8.504;2023-09-19T05:01:41;15.30;99.90
13436;DHT22;6790;49.520;8.504;2023-09-19T05:04:06;15.20;99.90
13436;DHT22;6790;49.520;8.504;2023-09-19T05:06:32;15.20;99.90
13436;DHT22;6790;49.520;8.504;2023-09-19T05:08:59;15.10;99.90
13436;DHT22;6790;49.520;8.504;2023-09-19T05:11:25;15.00;99.90
13436;DHT22;6790;49.520;8.504;2023-09-19T05:13:51;15.00;99.90
13436;DHT22;6790;49.520;8.504;2023-09-19T05:16:18;15.00;99.90
13436;DHT22;6790;49.520;8.504;2023-09-19T05:18:44;15.00;99.90
13436;DHT22;6790;49.520;8.504;2023-09-19T05:21:10;15.00;99.90
13436;DHT22;6790;49.520;8.504;2023-09-19T05:23:36;15.10;99.90
13436;DHT22;6790;49.520;8.504;2023-09-19T05:26:02;15.20;99.90
13436;DHT22;6790;49.520;8.504;2023-09-19T05:28:29;15.30;99.90
13436;DHT22;6790;49.520;8.504;2023-09-19T05:30:55;15.40;99.90
13436;DHT22;6790;49.520;8.504;2023-09-19T05:33:21;15.60;99.90
13436;DHT22;6790;49.520;8.504;2023-09-19T05:35:48;15.70;99.90
13436;DHT22;6790;49.520;8.504;2023-09-19T05:38:14;15.80;99.90
13436;DHT22;6790;49.520;8.504;2023-09-19T05:40:44;15.90;99.90
13436;DHT22;6790;49.520;8.504;2023-09-19T05:43:10;15.80;99.90
13436;DHT22;6790;49.520;8.504;2023-09-19T05:45:36;15.90;99.90
13436;DHT22;6790;49.520;8.504;2023-09-19T05:48:14;15.90;99.90
13436;DHT22;6790;49.520;8.504;2023-09-19T05:50:42;15.90;99.90
13436;DHT22;6790;49.520;8.504;2023-09-19T05:53:08;15.90;99.90
13436;DHT22;6790;49.520;8.504;2023-09-19T05:55:43;15.80;99.90
13436;DHT22;6790;49.520;8.504;2023-09-19T05:58:09;15.90;99.90
13436;DHT22;6790;49.520;8.504;2023-09-19T06:00:35;16.00;99.90
13436;DHT22;6790;49.520;8.504;2023-09-19T06:03:02;16.00;99.90
13436;DHT22;6790;49.520;8.504;2023-09-19T06:05:28;16.00;99.90
13436;DHT22;6790;49.520;8.504;2023-09-19T06:07:55;16.00;99.90
13436;DHT22;6790;49.520;8.504;2023-09-19T06:10:25;16.10;99.90
13436;DHT22;6790;49.520;8.504;2023-09-19T06:12:53;16.10;99.90
13436;DHT22;6790;49.520;8.504;2023-09-19T06:15:26;16.20;99.90
13436;DHT22;6790;49.520;8.504;2023-09-19T06:17:54;16.20;99.90
13436;DHT22;6790;49.520;8.504;2023-09-19T06:20:25;16.20;99.90
13436;DHT22;6790;49.520;8.504;2023-09-19T06:22:52;16.20;99.90
13436;DHT22;6790;49.520;8.504;2023-09-19T06:25:19;16.30;99.90
13436;DHT22;6790;49.520;8.504;2023-09-19T06:27:45;16.40;99.90
13436;DHT22;6790;49.520;8.504;2023-09-19T06:30:12;16.40;99.90
13436;DHT22;6790;49.520;8.504;2023-09-19T06:32:39;16.50;99.90
13436;DHT22;6790;49.520;8.504;2023-09-19T06:35:11;16.50;99.90
13436;DHT22;6790;49.520;8.504;2023-09-19T06:37:39;16.60;99.90
13436;DHT22;6790;49.520;8.504;2023-09-19T06:40:09;16.60;99.90
13436;DHT22;6790;49.520;8.504;2023-09-19T06:42:43;16.60;99.90
13436;DHT22;6790;49.520;8.504;2023-09-19T06:45:11;16.60;99.90
13436;DHT22;6790;49.520;8.504;2023-09-19T06:47:39;16.60;99.90
13436;DHT22;6790;49.520;8.504;2023-09-19T06:50:05;16.70;99.90
13436;DHT22;6790;49.520;8.504;2023-09-19T06:52:34;16.70;99.90
13436;DHT22;6790;49.520;8.504;2023-09-19T06:55:00;16.70;99.90
13436;DHT22;6790;49.520;8.504;2023-09-19T06:57:28;16.70;99.90
13436;DHT22;6790;49.520;8.504;2023-09-19T06:59:56;16.70;99.90
13436;DHT22;6790;49.520;8.504;2023-09-19T07:02:21;16.70;99.90
13436;DHT22;6790;49.520;8.504;2023-09-19T07:04:47;16.70;99.90
13436;DHT22;6790;49.520;8.504;2023-09-19T07:07:13;16.80;99.90
13436;DHT22;6790;49.520;8.504;2023-09-19T07:09:39;16.80;99.90
13436;DHT22;6790;49.520;8.504;2023-09-19T07:12:05;16.90;99.90
13436;DHT22;6790;49.520;8.504;2023-09-19T07:14:31;16.90;99.90
13436;DHT22;6790;49.520;8.504;2023-09-19T07:16:57;17.00;99.90
13436;DHT22;6790;49.520;8.504;2023-09-19T07:19:25;17.00;99.90
13436;DHT22;6790;49.520;8.504;2023-09-19T07:21:53;17.10;99.90
13436;DHT22;6790;49.520;8.504;2023-09-19T07:24:19;17.10;99.90
13436;DHT22;6790;49.520;8.504;2023-09-19T07:26:47;17.20;99.90
13436;DHT22;6790;49.520;8.504;2023-09-19T07:29:13;17.30;99.90
13436;DHT22;6790;49.520;8.504;2023-09-19T07:31:39;17.30;99.90
13436;DHT22;6790;49.520;8.504;2023-09-19T07:34:05;17.30;99.90
13436;DHT22;6790;49.520;8.504;2023-09-19T07:36:34;17.40;99.90
13436;DHT22;6790;49.520;8.504;2023-09-19T07:38:59;17.40;99.90
13436;DHT22;6790;49.520;8.504;2023-09-19T07:41:25;17.50;99.90
13436;DHT22;6790;49.520;8.504;2023-09-19T07:43:51;17.60;99.90
13436;DHT22;6790;49.520;8.504;2023-09-19T07:46:17;17.70;99.90
13436;DHT22;6790;49.520;8.504;2023-09-19T07:48:44;17.80;99.90
13436;DHT22;6790;49.520;8.504;2023-09-19T07:51:14;17.80;99.90
13436;DHT22;6790;49.520;8.504;2023-09-19T07:53:41;17.90;99.90
13436;DHT22;6790;49.520;8.504;2023-09-19T07:56:08;18.00;99.90
13436;DHT22;6790;49.520;8.504;2023-09-19T07:58:35;18.10;99.90
13436;DHT22;6790;49.520;8.504;2023-09-19T08:01:07;18.20;99.90
13436;DHT22;6790;49.520;8.504;2023-09-19T08:03:34;18.30;99.90
13436;DHT22;6790;49.520;8.504;2023-09-19T08:06:00;18.40;99.90
13436;DHT22;6790;49.520;8.504;2023-09-19T08:08:27;18.40;99.90
13436;DHT22;6790;49.520;8.504;2023-09-19T08:10:54;18.40;99.90
13436;DHT22;6790;49.520;8.504;2023-09-19T08:13:24;18.50;99.90
13436;DHT22;6790;49.520;8.504;2023-09-19T08:15:50;18.60;99.90
13436;DHT22;6790;49.520;8.504;2023-09-19T08:18:16;18.50;99.90
13436;DHT22;6790;49.520;8.504;2023-09-19T08:20:42;18.40;99.90
13436;DHT22;6790;49.520;8.504;2023-09-19T08:23:11;18.40;99.90
13436;DHT22;6790;49.520;8.504;2023-09-19T08:25:37;18.40;99.90
13436;DHT22;6790;49.520;8.504;2023-09-19T08:28:05;18.40;99.90
13436;DHT22;6790;49.520;8.504;2023-09-19T08:30:34;18.50;99.90
13436;DHT22;6790;49.520;8.504;2023-09-19T08:33:00;18.40;99.90
13436;DHT22;6790;49.520;8.504;2023-09-19T08:35:29;18.30;99.90
13436;DHT22;6790;49.520;8.504;2023-09-19T08:37:55;18.30;99.90
13436;DHT22;6790;49.520;8.504;2023-09-19T08:40:22;18.20;99.90
13436;DHT22;6790;49.520;8.504;2023-09-19T08:42:53;18.30;99.90
13436;DHT22;6790;49.520;8.504;2023-09-19T08:45:21;18.30;99.90
13436;DHT22;6790;49.520;8.504;2023-09-19T08:48:22;18.30;99.90
13436;DHT22;6790;49.520;8.504;2023-09-19T08:51:06;18.50;99.90
13436;DHT22;6790;49.520;8.504;2023-09-19T08:56:35;18.90;99.90
13436;DHT22;6790;49.520;8.504;2023-09-19T08:59:05;18.90;99.90
13436;DHT22;6790;49.520;8.504;2023-09-19T09:01:36;18.90;99.90
13436;DHT22;6790;49.520;8.504;2023-09-19T09:04:06;19.00;99.90
13436;DHT22;6790;49.520;8.504;2023-09-19T09:06:34;19.10;99.90
13436;DHT22;6790;49.520;8.504;2023-09-19T09:09:02;19.20;99.90
13436;DHT22;6790;49.520;8.504;2023-09-19T09:11:28;19.30;99.90
13436;DHT22;6790;49.520;8.504;2023-09-19T09:13:54;19.30;99.90
13436;DHT22;6790;49.520;8.504;2023-09-19T09:16:20;19.40;99.90
13436;DHT22;6790;49.520;8.504;2023-09-19T09:18:46;19.30;99.90
13436;DHT22;6790;49.520;8.504;2023-09-19T09:21:17;19.40;99.90
13436;DHT22;6790;49.520;8.504;2023-09-19T09:23:43;19.40;99.90
13436;DHT22;6790;49.520;8.504;2023-09-19T09:26:09;19.40;99.90
13436;DHT22;6790;49.520;8.504;2023-09-19T09:28:35;19.50;99.90
13436;DHT22;6790;49.520;8.504;2023-09-19T09:31:04;19.60;99.90
13436;DHT22;6790;49.520;8.504;2023-09-19T09:33:36;19.50;99.90
13436;DHT22;6790;49.520;8.504;2023-09-19T09:36:03;19.40;99.90
13436;DHT22;6790;49.520;8.504;2023-09-19T09:38:44;19.20;99.90
13436;DHT22;6790;49.520;8.504;2023-09-19T09:41:11;19.30;99.90
13436;DHT22;6790;49.520;8.504;2023-09-19T09:43:41;19.30;99.90
13436;DHT22;6790;49.520;8.504;2023-09-19T09:46:16;19.50;99.90
13436;DHT22;6790;49.520;8.504;2023-09-19T09:48:46;19.50;99.90
13436;DHT22;6790;49.520;8.504;2023-09-19T09:51:32;19.40;99.90
13436;DHT22;6790;49.520;8.504;2023-09-19T09:54:18;19.40;99.90
13436;DHT22;6790;49.520;8.504;2023-09-19T09:57:07;19.30;99.90
13436;DHT22;6790;49.520;8.504;2023-09-19T10:02:42;19.90;99.90
13436;DHT22;6790;49.520;8.504;2023-09-19T10:05:18;20.00;99.90
13436;DHT22;6790;49.520;8.504;2023-09-19T10:07:54;20.30;99.90
13436;DHT22;6790;49.520;8.504;2023-09-19T10:10:34;20.50;98.80
13436;DHT22;6790;49.520;8.504;2023-09-19T10:13:19;20.60;99.90
13436;DHT22;6790;49.520;8.504;2023-09-19T10:15:49;20.90;99.90
13436;DHT22;6790;49.520;8.504;2023-09-19T10:18:24;21.10;99.90
13436;DHT22;6790;49.520;8.504;2023-09-19T10:20:51;20.90;99.90
13436;DHT22;6790;49.520;8.504;2023-09-19T10:23:18;20.80;99.90
13436;DHT22;6790;49.520;8.504;2023-09-19T10:25:52;21.10;97.50
13436;DHT22;6790;49.520;8.504;2023-09-19T10:28:19;21.30;97.70
13436;DHT22;6790;49.520;8.504;2023-09-19T10:30:57;21.30;95.90
13436;DHT22;6790;49.520;8.504;2023-09-19T10:33:24;21.40;96.10
13436;DHT22;6790;49.520;8.504;2023-09-19T10:35:57;21.20;99.70
13436;DHT22;6790;49.520;8.504;2023-09-19T10:38:26;21.00;99.90
13436;DHT22;6790;49.520;8.504;2023-09-19T10:40:54;21.00;98.70
13436;DHT22;6790;49.520;8.504;2023-09-19T10:43:33;21.30;99.90
13436;DHT22;6790;49.520;8.504;2023-09-19T10:46:03;21.50;99.90
13436;DHT22;6790;49.520;8.504;2023-09-19T10:48:32;21.90;96.00
13436;DHT22;6790;49.520;8.504;2023-09-19T10:54:08;21.40;99.90
13436;DHT22;6790;49.520;8.504;2023-09-19T10:56:42;21.40;97.40
13436;DHT22;6790;49.520;8.504;2023-09-19T10:59:15;21.70;96.10
13436;DHT22;6790;49.520;8.504;2023-09-19T11:01:52;21.20;96.70
13436;DHT22;6790;49.520;8.504;2023-09-19T11:04:35;21.50;96.40
13436;DHT22;6790;49.520;8.504;2023-09-19T11:07:08;21.50;95.80
13436;DHT22;6790;49.520;8.504;2023-09-19T11:09:55;21.70;95.00
13436;DHT22;6790;49.520;8.504;2023-09-19T11:15:07;21.40;93.80
13436;DHT22;6790;49.520;8.504;2023-09-19T11:17:38;21.20;94.50
13436;DHT22;6790;49.520;8.504;2023-09-19T11:30:43;20.80;94.70
13436;DHT22;6790;49.520;8.504;2023-09-19T11:36:06;20.80;98.50
13436;DHT22;6790;49.520;8.504;2023-09-19T11:46:34;21.70;90.80
13436;DHT22;6790;49.520;8.504;2023-09-19T11:49:06;21.40;94.50
13436;DHT22;6790;49.520;8.504;2023-09-19T11:51:43;21.80;91.60
13436;DHT22;6790;49.520;8.504;2023-09-19T11:54:11;22.10;91.80
13436;DHT22;6790;49.520;8.504;2023-09-19T11:56:43;22.30;93.40
13436;DHT22;6790;49.520;8.504;2023-09-19T11:59:10;22.60;90.70
13436;DHT22;6790;49.520;8.504;2023-09-19T12:01:38;22.50;83.10
13436;DHT22;6790;49.520;8.504;2023-09-19T12:04:11;22.10;86.10
13436;DHT22;6790;49.520;8.504;2023-09-19T12:06:37;22.40;86.70
13436;DHT22;6790;49.520;8.504;2023-09-19T12:09:12;22.60;83.00
13436;DHT22;6790;49.520;8.504;2023-09-19T12:11:42;22.60;83.10
13436;DHT22;6790;49.520;8.504;2023-09-19T12:14:11;22.70;79.40
13436;DHT22;6790;49.520;8.504;2023-09-19T12:16:37;22.70;75.10
13436;DHT22;6790;49.520;8.504;2023-09-19T12:19:20;22.40;85.50
13436;DHT22;6790;49.520;8.504;2023-09-19T12:21:57;22.80;87.60
13436;DHT22;6790;49.520;8.504;2023-09-19T12:24:31;23.10;90.20
13436;DHT22;6790;49.520;8.504;2023-09-19T12:27:01;23.00;90.10
13436;DHT22;6790;49.520;8.504;2023-09-19T12:29:31;23.00;80.30
13436;DHT22;6790;49.520;8.504;2023-09-19T12:31:59;23.30;73.80
13436;DHT22;6790;49.520;8.504;2023-09-19T12:34:32;23.10;75.30
13436;DHT22;6790;49.520;8.504;2023-09-19T12:39:52;23.10;75.50
13436;DHT22;6790;49.520;8.504;2023-09-19T12:42:23;23.10;73.50
13436;DHT22;6790;49.520;8.504;2023-09-19T12:44:58;23.00;81.00
13436;DHT22;6790;49.520;8.504;2023-09-19T12:47:26;22.90;74.70
13436;DHT22;6790;49.520;8.504;2023-09-19T12:50:09;23.10;84.30
13436;DHT22;6790;49.520;8.504;2023-09-19T12:52:42;23.10;71.80
13436;DHT22;6790;49.520;8.504;2023-09-19T12:55:19;22.80;77.00
13436;DHT22;6790;49.520;8.504;2023-09-19T12:58:13;22.70;80.50
13436;DHT22;6790;49.520;8.504;2023-09-19T13:00:44;22.90;75.50
13436;DHT22;6790;49.520;8.504;2023-09-19T13:03:27;22.80;82.30
13436;DHT22;6790;49.520;8.504;2023-09-19T13:05:58;23.00;82.10
13436;DHT22;6790;49.520;8.504;2023-09-19T13:08:28;23.30;77.00
13436;DHT22;6790;49.520;8.504;2023-09-19T13:11:14;23.60;72.80
13436;DHT22;6790;49.520;8.504;2023-09-19T13:13:43;23.70;73.00
13436;DHT22;6790;49.520;8.504;2023-09-19T13:16:10;23.70;76.80
13436;DHT22;6790;49.520;8.504;2023-09-19T13:18:44;24.00;75.60
13436;DHT22;6790;49.520;8.504;2023-09-19T13:21:12;24.00;77.30
13436;DHT22;6790;49.520;8.504;2023-09-19T13:23:52;23.90;70.50
13436;DHT22;6790;49.520;8.504;2023-09-19T13:26:27;23.90;76.70
13436;DHT22;6790;49.520;8.504;2023-09-19T13:28:54;23.90;71.80
13436;DHT22;6790;49.520;8.504;2023-09-19T13:31:20;24.00;72.50
13436;DHT22;6790;49.520;8.504;2023-09-19T13:33:48;23.80;74.90
13436;DHT22;6790;49.520;8.504;2023-09-19T13:36:14;23.60;79.70
13436;DHT22;6790;49.520;8.504;2023-09-19T13:38:41;23.20;86.20
13436;DHT22;6790;49.520;8.504;2023-09-19T13:41:10;23.20;85.30
13436;DHT22;6790;49.520;8.504;2023-09-19T13:43:37;23.30;78.30
13436;DHT22;6790;49.520;8.504;2023-09-19T13:46:04;23.40;74.80
13436;DHT22;6790;49.520;8.504;2023-09-19T13:48:33;23.30;74.90
13436;DHT22;6790;49.520;8.504;2023-09-19T13:51:03;23.50;77.20
13436;DHT22;6790;49.520;8.504;2023-09-19T13:53:29;23.70;73.90
13436;DHT22;6790;49.520;8.504;2023-09-19T13:55:55;23.90;73.70
13436;DHT22;6790;49.520;8.504;2023-09-19T13:58:20;23.70;72.60
13436;DHT22;6790;49.520;8.504;2023-09-19T14:00:48;23.20;77.50
13436;DHT22;6790;49.520;8.504;2023-09-19T14:03:14;23.00;80.30
13436;DHT22;6790;49.520;8.504;2023-09-19T14:05:40;23.00;85.90
13436;DHT22;6790;49.520;8.504;2023-09-19T14:08:05;23.20;78.30
13436;DHT22;6790;49.520;8.504;2023-09-19T14:10:31;23.40;77.30
13436;DHT22;6790;49.520;8.504;2023-09-19T14:12:57;23.20;79.30
13436;DHT22;6790;49.520;8.504;2023-09-19T14:15:25;22.90;78.30
13436;DHT22;6790;49.520;8.504;2023-09-19T14:17:56;22.80;83.40
13436;DHT22;6790;49.520;8.504;2023-09-19T14:20:22;22.70;83.50
13436;DHT22;6790;49.520;8.504;2023-09-19T14:22:48;22.50;84.00
13436;DHT22;6790;49.520;8.504;2023-09-19T14:25:14;22.30;85.00
13436;DHT22;6790;49.520;8.504;2023-09-19T14:27:40;22.50;82.00
13436;DHT22;6790;49.520;8.504;2023-09-19T14:30:07;22.90;80.90
13436;DHT22;6790;49.520;8.504;2023-09-19T14:32:34;23.10;81.30
13436;DHT22;6790;49.520;8.504;2023-09-19T14:35:02;23.40;77.70
13436;DHT22;6790;49.520;8.504;2023-09-19T14:37:28;23.20;80.80
13436;DHT22;6790;49.520;8.504;2023-09-19T14:39:54;23.00;82.30
13436;DHT22;6790;49.520;8.504;2023-09-19T14:42:20;22.70;80.70
13436;DHT22;6790;49.520;8.504;2023-09-19T14:44:46;22.60;81.20
13436;DHT22;6790;49.520;8.504;2023-09-19T14:47:13;22.40;84.30
13436;DHT22;6790;49.520;8.504;2023-09-19T14:49:39;22.50;86.20
13436;DHT22;6790;49.520;8.504;2023-09-19T14:52:09;22.60;80.60
13436;DHT22;6790;49.520;8.504;2023-09-19T14:54:36;22.60;84.40
13436;DHT22;6790;49.520;8.504;2023-09-19T14:57:06;22.40;87.30
13436;DHT22;6790;49.520;8.504;2023-09-19T14:59:34;22.30;84.20
13436;DHT22;6790;49.520;8.504;2023-09-19T15:02:04;22.30;86.10
13436;DHT22;6790;49.520;8.504;2023-09-19T15:04:30;22.20;88.00
13436;DHT22;6790;49.520;8.504;2023-09-19T15:06:56;22.20;90.00
13436;DHT22;6790;49.520;8.504;2023-09-19T15:09:23;22.20;87.40
13436;DHT22;6790;49.520;8.504;2023-09-19T15:11:54;22.30;92.00
13436;DHT22;6790;49.520;8.504;2023-09-19T15:14:21;22.40;91.60
13436;DHT22;6790;49.520;8.504;2023-09-19T15:16:47;22.70;90.40
13436;DHT22;6790;49.520;8.504;2023-09-19T15:19:14;22.60;89.20
13436;DHT22;6790;49.520;8.504;2023-09-19T15:21:41;22.40;90.70
13436;DHT22;6790;49.520;8.504;2023-09-19T15:24:07;22.70;87.60
13436;DHT22;6790;49.520;8.504;2023-09-19T15:26:35;22.60;87.40
13436;DHT22;6790;49.520;8.504;2023-09-19T15:29:08;22.50;90.70
13436;DHT22;6790;49.520;8.504;2023-09-19T15:31:34;22.60;91.40
13436;DHT22;6790;49.520;8.504;2023-09-19T15:34:02;22.60;90.00
13436;DHT22;6790;49.520;8.504;2023-09-19T15:36:29;22.50;90.40
13436;DHT22;6790;49.520;8.504;2023-09-19T15:39:05;22.40;91.10
13436;DHT22;6790;49.520;8.504;2023-09-19T15:41:36;22.60;88.20
13436;DHT22;6790;49.520;8.504;2023-09-19T15:44:10;22.50;84.50
13436;DHT22;6790;49.520;8.504;2023-09-19T15:46:37;22.30;86.90
13436;DHT22;6790;49.520;8.504;2023-09-19T15:49:03;22.20;88.70
13436;DHT22;6790;49.520;8.504;2023-09-19T15:51:29;22.10;91.40
13436;DHT22;6790;49.520;8.504;2023-09-19T15:53:55;22.10;91.20
13436;DHT22;6790;49.520;8.504;2023-09-19T15:56:23;22.00;92.00
13436;DHT22;6790;49.520;8.504;2023-09-19T15:58:54;21.90;90.90
13436;DHT22;6790;49.520;8.504;2023-09-19T16:01:21;22.00;91.50
13436;DHT22;6790;49.520;8.504;2023-09-19T16:03:49;22.20;91.00
13436;DHT22;6790;49.520;8.504;2023-09-19T16:06:19;22.00;91.70
13436;DHT22;6790;49.520;8.504;2023-09-19T16:08:49;21.90;94.20
13436;DHT22;6790;49.520;8.504;2023-09-19T16:11:17;21.80;94.30
13436;DHT22;6790;49.520;8.504;2023-09-19T16:13:47;21.60;95.20
13436;DHT22;6790;49.520;8.504;2023-09-19T16:16:14;21.60;95.60
13436;DHT22;6790;49.520;8.504;2023-09-19T16:18:46;21.50;94.30
13436;DHT22;6790;49.520;8.504;2023-09-19T16:21:13;21.50;94.50
13436;DHT22;6790;49.520;8.504;2023-09-19T16:23:39;21.50;95.80
13436;DHT22;6790;49.520;8.504;2023-09-19T16:26:07;21.50;95.40
13436;DHT22;6790;49.520;8.504;2023-09-19T16:28:35;21.50;95.90
13436;DHT22;6790;49.520;8.504;2023-09-19T16:31:03;21.40;96.80
13436;DHT22;6790;49.520;8.504;2023-09-19T16:33:33;21.40;95.20
13436;DHT22;6790;49.520;8.504;2023-09-19T16:36:00;21.50;95.30
13436;DHT22;6790;49.520;8.504;2023-09-19T16:38:27;21.40;95.60
13436;DHT22;6790;49.520;8.504;2023-09-19T16:40:54;21.50;95.90
13436;DHT22;6790;49.520;8.504;2023-09-19T16:43:27;21.30;98.30
13436;DHT22;6790;49.520;8.504;2023-09-19T16:46:03;21.20;98.30
13436;DHT22;6790;49.520;8.504;2023-09-19T16:48:31;21.10;97.50
13436;DHT22;6790;49.520;8.504;2023-09-19T16:51:01;21.10;97.70
13436;DHT22;6790;49.520;8.504;2023-09-19T16:53:31;21.20;97.30
13436;DHT22;6790;49.520;8.504;2023-09-19T16:56:08;21.20;97.80